createdAt,value
2024-01-21T00:02:26.284Z,6.7
2024-01-21T00:07:25.645Z,7
2024-01-21T00:12:25.005Z,6.7
2024-01-21T00:17:24.461Z,7
2024-01-21T00:22:23.910Z,6.1
2024-01-21T00:27:23.483Z,5.9
2024-01-21T00:32:22.910Z,5.1
2024-01-21T00:37:22.212Z,5.3
2024-01-21T00:42:21.656Z,4.5
2024-01-21T00:47:21.366Z,5
2024-01-21T00:52:20.486Z,4.2
2024-01-21T00:57:19.907Z,4.4
2024-01-21T01:02:19.968Z,3.9
2024-01-21T01:07:18.730Z,3.9
2024-01-21T01:12:18.205Z,3.9
2024-01-21T01:17:17.600Z,4.1
2024-01-21T01:22:19.753Z,4
2024-01-21T01:27:16.431Z,3.7
2024-01-21T01:32:16.005Z,4
2024-01-21T01:37:15.330Z,3.6
2024-01-21T01:42:14.866Z,4.3
2024-01-21T01:47:14.087Z,4.4
2024-01-21T01:52:15.167Z,3.8
2024-01-21T01:57:15.024Z,4
2024-01-21T02:02:12.633Z,3.9
2024-01-21T02:07:11.755Z,3.3
2024-01-21T02:12:11.290Z,3.1
2024-01-21T02:17:10.620Z,3
2024-01-21T02:22:09.852Z,2.9
2024-01-21T02:27:09.524Z,2.7
2024-01-21T02:32:09.092Z,3.1
2024-01-21T02:37:08.293Z,2.8
2024-01-21T02:42:07.746Z,3
2024-01-21T02:47:06.801Z,3
2024-01-21T02:52:06.266Z,3.3
2024-01-21T02:57:05.632Z,2.6
2024-01-21T03:02:05.441Z,2.4
2024-01-21T03:07:04.464Z,2.8
2024-01-21T03:12:03.943Z,2.6
2024-01-21T03:17:04.518Z,2.6
2024-01-21T03:22:02.660Z,2.1
2024-01-21T03:27:02.062Z,2.7
2024-01-21T03:32:01.420Z,2.9
2024-01-21T03:37:00.845Z,2.3
2024-01-21T03:42:00.237Z,2.4
2024-01-21T03:47:01.429Z,2.6
2024-01-21T03:51:59.141Z,2.6
2024-01-21T03:56:58.426Z,2.4
2024-01-21T04:01:57.867Z,3
2024-01-21T04:06:57.338Z,2.8
2024-01-21T04:11:57.733Z,3.1
2024-01-21T04:16:56.197Z,2.9
2024-01-21T04:21:55.537Z,2.9
2024-01-21T04:26:54.954Z,2.9
2024-01-21T04:31:54.353Z,3.4
2024-01-21T04:36:53.995Z,3.2
2024-01-21T04:41:53.312Z,3.3
2024-01-21T04:46:52.821Z,3.1
2024-01-21T04:51:52.238Z,3.4
2024-01-21T04:56:51.522Z,3.4
2024-01-21T05:01:52.784Z,3.2
2024-01-21T05:06:50.656Z,3.7
2024-01-21T05:11:49.992Z,4.1
2024-01-21T05:16:49.363Z,3.6
2024-01-21T05:21:48.783Z,3.9
2024-01-21T05:26:51.488Z,4.2
2024-01-21T05:31:47.620Z,4.2
2024-01-21T05:36:47.178Z,4.8
2024-01-21T05:41:46.445Z,4.6
2024-01-21T05:46:45.858Z,4.3
2024-01-21T05:51:45.331Z,4.4
2024-01-21T05:56:44.780Z,4.5
2024-01-21T06:01:44.375Z,4.4
2024-01-21T06:06:44.890Z,4.8
2024-01-21T06:11:44.793Z,4.3
2024-01-21T06:16:42.701Z,4.7
2024-01-21T06:21:45.235Z,5.2
2024-01-21T06:26:41.852Z,5.1
2024-01-21T06:31:40.772Z,5.1
2024-01-21T06:36:40.190Z,5.3
2024-01-21T06:41:39.657Z,4.9
2024-01-21T06:46:38.985Z,5.3
2024-01-21T06:51:44.690Z,5.2
2024-01-21T06:56:37.859Z,4.9
2024-01-21T07:01:37.356Z,4.9
2024-01-21T07:06:36.794Z,5.2
2024-01-21T07:11:36.916Z,4.7
2024-01-21T07:16:35.707Z,4.9
2024-01-21T07:21:35.407Z,4.5
2024-01-21T07:26:34.467Z,4.7
2024-01-21T07:31:33.928Z,5
2024-01-21T07:36:33.378Z,4.6
2024-01-21T07:41:32.821Z,4.1
2024-01-21T07:46:32.217Z,4.2
2024-01-21T07:51:31.659Z,4.7
2024-01-21T07:56:31.073Z,4.8
2024-01-21T08:01:30.632Z,5.6
2024-01-21T08:06:29.959Z,4.8
2024-01-21T08:11:29.361Z,5.2
2024-01-21T08:16:29.196Z,4.9
2024-01-21T08:21:28.283Z,4.4
2024-01-21T08:26:27.716Z,5.2
2024-01-21T08:31:27.301Z,4.5
2024-01-21T08:36:27.435Z,4.9
2024-01-21T08:41:26.119Z,5
2024-01-21T08:46:25.604Z,4.5
2024-01-21T08:51:25.101Z,4.8
2024-01-21T08:56:24.516Z,5
2024-01-21T09:01:24.751Z,4.7
2024-01-21T09:06:23.476Z,5.1
2024-01-21T09:11:24.335Z,5.4
2024-01-21T09:16:24.457Z,5.3
2024-01-21T09:21:27.473Z,5.2
2024-01-21T09:26:21.554Z,4.6
2024-01-21T09:31:20.972Z,4.9
2024-01-21T09:36:20.778Z,5.2
2024-01-21T09:41:24.797Z,4.9
2024-01-21T09:46:19.899Z,5.2
2024-01-21T09:51:22.154Z,5.3
2024-01-21T09:56:18.695Z,5.3
2024-01-21T10:01:19.715Z,5
2024-01-21T10:06:18.062Z,5.2
2024-01-21T10:11:17.237Z,5
2024-01-21T10:16:16.848Z,5.1
2024-01-21T10:21:16.440Z,4.9
2024-01-21T10:26:15.768Z,5.6
2024-01-21T10:31:15.807Z,5.1
2024-01-21T10:36:15.689Z,5.2
2024-01-21T10:41:14.492Z,5.3
2024-01-21T10:46:13.979Z,5.5
2024-01-21T10:51:14.131Z,4.8
2024-01-21T10:56:13.954Z,5
2024-01-21T11:01:14.141Z,5.2
2024-01-21T11:06:12.486Z,5
2024-01-21T11:11:21.478Z,5.3
2024-01-21T11:16:11.151Z,5.8
2024-01-21T11:21:10.612Z,6.4
2024-01-21T11:26:10.172Z,6
2024-01-21T11:31:11.564Z,5.7
2024-01-21T11:36:10.107Z,6.8
2024-01-21T11:41:09.768Z,5.6
2024-01-21T11:46:08.928Z,6.6
2024-01-21T11:51:08.150Z,5.4
2024-01-21T11:56:07.945Z,6.4
2024-01-21T12:01:07.220Z,7.1
2024-01-21T12:06:07.476Z,5.7
2024-01-21T12:11:06.294Z,7.3
2024-01-21T12:16:06.188Z,5.8
2024-01-21T12:21:05.427Z,6.2
2024-01-21T12:26:05.152Z,6.5
2024-01-21T12:31:04.637Z,5.3
2024-01-21T12:36:04.212Z,7.8
2024-01-21T12:41:03.770Z,5.9
2024-01-21T12:46:04.255Z,6.6
2024-01-21T12:51:03.540Z,7.2
2024-01-21T12:56:02.671Z,5.8
2024-01-21T13:01:02.054Z,7.2
2024-01-21T13:06:02.283Z,5.9
2024-01-21T13:11:01.205Z,7.2
2024-01-21T13:16:01.572Z,8.4
2024-01-21T13:21:00.524Z,8.1
2024-01-21T13:25:59.998Z,6.8
2024-01-21T13:30:59.981Z,7.4
2024-01-21T13:35:59.575Z,6.1
2024-01-21T13:40:58.837Z,7.3
2024-01-21T13:45:58.999Z,8
2024-01-21T13:50:57.993Z,6.3
2024-01-21T13:55:57.443Z,9
2024-01-21T14:00:57.497Z,7.3
2024-01-21T14:05:56.647Z,7.9
2024-01-21T14:10:56.391Z,8.8
2024-01-21T14:15:55.791Z,6.1
2024-01-21T14:20:55.370Z,8
2024-01-21T14:25:58.772Z,7.5
2024-01-21T14:30:54.545Z,8
2024-01-21T14:35:54.056Z,8.3
2024-01-21T14:40:55.522Z,8.4
2024-01-21T14:45:53.279Z,9.2
2024-01-21T14:50:54.245Z,7.9
2024-01-21T14:55:52.411Z,8.4
2024-01-21T15:00:51.982Z,7.2
2024-01-21T15:05:51.497Z,10.6
2024-01-21T15:10:51.171Z,9.9
2024-01-21T15:15:50.707Z,6.8
2024-01-21T15:20:50.533Z,8.8
2024-01-21T15:25:49.864Z,6.8
2024-01-21T15:30:49.561Z,8.9
2024-01-21T15:35:49.163Z,8.7
2024-01-21T15:40:48.584Z,8.1
2024-01-21T15:45:48.269Z,9.4
2024-01-21T15:50:47.891Z,6.7
2024-01-21T15:55:47.424Z,9.6
2024-01-21T16:00:48.451Z,9.1
2024-01-21T16:05:47.361Z,8
2024-01-21T16:10:46.839Z,8.9
2024-01-21T16:15:50.727Z,9.2
2024-01-21T16:20:46.660Z,9.4
2024-01-21T16:25:44.989Z,9.7
2024-01-21T16:30:44.646Z,9.2
2024-01-21T16:35:44.123Z,8
2024-01-21T16:40:43.637Z,9.4
2024-01-21T16:45:43.315Z,9
2024-01-21T16:50:42.788Z,8.1
2024-01-21T16:55:43.540Z,9.4
2024-01-21T17:00:45.050Z,7.7
2024-01-21T17:05:41.679Z,12.5
2024-01-21T17:10:42.765Z,8.3
2024-01-21T17:15:40.618Z,9.8
2024-01-21T17:20:40.229Z,9.7
2024-01-21T17:25:39.746Z,7.9
2024-01-21T17:30:39.368Z,9.6
2024-01-21T17:35:38.925Z,10
2024-01-21T17:40:38.956Z,8.9
2024-01-21T17:45:38.221Z,8
2024-01-21T17:50:37.732Z,9.5
2024-01-21T17:55:37.215Z,7.6
2024-01-21T18:00:36.914Z,9.6
2024-01-21T18:05:36.456Z,8.3
2024-01-21T18:10:35.982Z,9.5
2024-01-21T18:15:36.932Z,7.3
2024-01-21T18:20:35.172Z,9.5
2024-01-21T18:25:34.670Z,7.2
2024-01-21T18:30:34.237Z,8.9
2024-01-21T18:35:34.263Z,8
2024-01-21T18:40:33.381Z,8.7
2024-01-21T18:45:32.957Z,6.9
2024-01-21T18:50:32.538Z,7.9
2024-01-21T18:55:32.036Z,9.8
2024-01-21T19:00:31.633Z,7.3
2024-01-21T19:05:31.270Z,7.6
2024-01-21T19:10:30.751Z,10
2024-01-21T19:15:30.833Z,7.4
2024-01-21T19:20:29.884Z,7.7
2024-01-21T19:25:29.520Z,7.9
2024-01-21T19:30:29.142Z,9.1
2024-01-21T19:35:28.783Z,7
2024-01-21T19:40:30.341Z,7.7
2024-01-21T19:45:27.914Z,9.3
2024-01-21T19:50:27.609Z,6.4
2024-01-21T19:55:27.032Z,8.9
2024-01-21T20:00:26.662Z,6.8
2024-01-21T20:05:26.324Z,8.4
2024-01-21T20:10:26.992Z,7.5
2024-01-21T20:15:25.321Z,7.8
2024-01-21T20:20:24.972Z,7.7
2024-01-21T20:25:24.731Z,7.5
2024-01-21T20:30:24.045Z,8.3
2024-01-21T20:35:23.948Z,7.6
2024-01-21T20:40:23.306Z,8
2024-01-21T20:45:22.710Z,8.7
2024-01-21T20:50:22.381Z,8.1
2024-01-21T20:55:22.692Z,9.2
2024-01-21T21:00:22.054Z,9.2
2024-01-21T21:05:21.377Z,9
2024-01-21T21:10:20.718Z,6.3
2024-01-21T21:15:20.248Z,7.9
2024-01-21T21:20:20.196Z,7.6
2024-01-21T21:25:20.062Z,7.4
2024-01-21T21:30:19.462Z,6.7
2024-01-21T21:35:18.974Z,7.2
2024-01-21T21:40:18.953Z,6.3
2024-01-21T21:45:21.612Z,7.2
2024-01-21T21:50:17.761Z,7.4
2024-01-21T21:55:17.343Z,7.1
2024-01-21T22:00:17.412Z,5.8
2024-01-21T22:05:16.545Z,6.7
2024-01-21T22:10:16.266Z,6.5
2024-01-21T22:15:16.361Z,5.6
2024-01-21T22:20:16.131Z,6.3
2024-01-21T22:25:15.053Z,5.7
2024-01-21T22:30:15.264Z,5.6
2024-01-21T22:35:14.505Z,6.4
2024-01-21T22:40:14.475Z,6
2024-01-21T22:45:14.110Z,7.1
2024-01-21T22:50:13.548Z,5.8
2024-01-21T22:55:13.119Z,6.1
2024-01-21T23:00:16.373Z,5.3
2024-01-21T23:05:12.617Z,5.5
2024-01-21T23:10:12.083Z,5.1
2024-01-21T23:15:12.075Z,5.7
2024-01-21T23:20:11.578Z,5.6
2024-01-21T23:25:11.032Z,5.3
2024-01-21T23:30:10.733Z,5.5
2024-01-21T23:35:09.605Z,5.6
2024-01-21T23:40:09.874Z,5
2024-01-21T23:45:09.408Z,5.6
2024-01-21T23:50:08.896Z,4.9
2024-01-21T23:55:08.396Z,5
